Time;durP1;ratioP1;P1;durP2;ratioP2;P2;SDS_P1;SDS_P2;PMS_P1;PMS_P2;Temp;Humidity;BMP_temperature;BMP_pressure;BME280_temperature;BME280_humidity;BME280_pressure;Samples;Min_cycle;Max_cycle;Signal;HPM_P1;HPM_P2
2022/08/25 00:02:20;;;;;;;;;16.75;15.75;;;;;27.14;39.26;100644.41;5059095;28;45513;-62
2022/08/25 00:04:54;;;;;;;;;16.50;16.50;;;;;27.10;39.41;100639.31;5059354;28;45574;-64
2022/08/25 00:07:27;;;;;;;;;16.00;13.50;;;;;27.08;39.01;100640.47;5043019;28;45443;-63
2022/08/25 00:10:00;;;;;;;;;13.50;13.00;;;;;27.05;39.31;100644.34;5045501;28;45641;-62
2022/08/25 00:12:47;;;;;;;;;12.25;12.25;;;;;27.03;39.27;100638.28;5062989;28;45545;-64
2022/08/25 00:15:17;;;;;;;;;12.25;11.25;;;;;27.00;40.09;100632.34;5028842;28;46175;-62
2022/08/25 00:17:58;;;;;;;;;15.50;14.50;;;;;26.95;39.94;100637.34;5027798;28;45512;-64
2022/08/25 00:20:32;;;;;;;;;13.00;13.00;;;;;26.87;40.61;100632.78;4993673;28;45582;-63
2022/08/25 00:23:10;;;;;;;;;18.50;17.50;;;;;26.83;40.75;100636.78;5060770;28;45535;-62
2022/08/25 00:25:54;;;;;;;;;16.25;15.50;;;;;26.81;41.09;100619.91;5040550;28;45731;-63
2022/08/25 00:28:31;;;;;;;;;15.75;15.50;;;;;26.79;41.00;100624.63;5058795;28;45557;-61
2022/08/25 00:31:06;;;;;;;;;14.50;14.50;;;;;26.78;41.23;100631.03;5041505;28;45652;-62
2022/08/25 00:33:48;;;;;;;;;14.00;13.00;;;;;26.75;41.32;100617.84;5027026;28;45603;-63
2022/08/25 00:36:19;;;;;;;;;12.25;11.25;;;;;26.74;41.41;100616.16;5058536;28;45507;-63
2022/08/25 00:41:42;;;;;;;;;14.00;14.00;;;;;26.73;41.83;100612.59;5044817;28;45622;-63
2022/08/25 00:44:25;;;;;;;;;17.00;16.75;;;;;26.69;41.40;100616.63;5058679;28;45397;-62
2022/08/25 00:47:02;;;;;;;;;17.00;17.00;;;;;26.65;41.67;100615.25;5009284;28;45614;-61
2022/08/25 00:50:11;;;;;;;;;12.75;12.75;;;;;26.63;41.36;100618.13;5059135;28;45597;-62
2022/08/25 00:53:00;;;;;;;;;15.75;14.00;;;;;26.65;41.54;100607.16;5059027;28;45474;-62
2022/08/25 00:55:39;;;;;;;;;13.25;12.00;;;;;26.66;40.90;100606.16;5058081;28;45620;-62
2022/08/25 01:01:19;;;;;;;;;13.25;13.25;;;;;26.59;41.46;100607.78;5059664;28;45450;-63
2022/08/25 01:03:49;;;;;;;;;16.75;15.75;;;;;26.55;42.06;100607.28;5059734;28;45501;-63
2022/08/25 01:06:43;;;;;;;;;15.50;14.50;;;;;26.56;42.03;100608.13;5059326;28;45492;-62
2022/08/25 01:09:38;;;;;;;;;16.75;15.25;;;;;26.52;42.43;100601.31;5040293;28;45523;-63
2022/08/25 01:12:09;;;;;;;;;12.25;12.25;;;;;26.54;42.33;100607.41;5057787;28;45532;-62
2022/08/25 01:14:47;;;;;;;;;17.25;15.00;;;;;26.53;42.46;100606.56;5058815;28;45523;-64
2022/08/25 01:17:27;;;;;;;;;18.00;17.00;;;;;26.50;42.23;100612.25;5041158;28;45509;-63
2022/08/25 01:20:00;;;;;;;;;15.00;13.50;;;;;26.51;41.75;100611.28;5006741;28;45587;-63
2022/08/25 01:22:36;;;;;;;;;15.00;15.00;;;;;26.52;42.01;100610.28;5040241;28;45578;-63
2022/08/25 01:25:20;;;;;;;;;14.50;14.25;;;;;26.50;41.83;100612.25;5058509;28;45396;-62
2022/08/25 01:27:50;;;;;;;;;18.00;16.50;;;;;26.51;41.88;100615.78;5040456;28;45540;-63
2022/08/25 01:30:23;;;;;;;;;12.75;12.75;;;;;26.49;41.91;100609.72;5058359;28;46575;-63
2022/08/25 01:33:00;;;;;;;;;13.50;13.50;;;;;26.48;42.50;100608.88;5040841;28;45590;-62
2022/08/25 01:35:50;;;;;;;;;14.50;14.50;;;;;26.47;42.63;100607.19;5054367;28;45615;-63
2022/08/25 01:38:19;;;;;;;;;17.00;17.00;;;;;26.43;42.17;100603.09;5007865;28;45547;-62
2022/08/25 01:40:53;;;;;;;;;13.00;13.00;;;;;26.44;41.37;100608.34;5058970;28;45524;-64
2022/08/25 01:43:36;;;;;;;;;15.50;14.00;;;;;26.44;42.00;100612.91;5057776;28;45421;-64
2022/08/25 01:46:10;;;;;;;;;15.75;13.50;;;;;26.43;41.77;100614.72;5058188;28;45367;-63
2022/08/25 01:48:41;;;;;;;;;15.25;15.25;;;;;26.42;42.15;100604.09;5058412;28;45411;-63
2022/08/25 01:51:12;;;;;;;;;15.50;14.75;;;;;26.41;42.06;100608.66;5023778;28;46517;-61
2022/08/25 01:56:44;;;;;;;;;15.50;15.25;;;;;26.37;41.84;100607.25;5043895;28;45460;-64
2022/08/25 01:59:21;;;;;;;;;14.00;14.00;;;;;26.36;42.48;100600.19;5024532;28;44937;-63
2022/08/25 02:01:54;;;;;;;;;15.75;14.25;;;;;26.38;42.35;100602.72;5057714;28;46342;-61
2022/08/25 02:04:32;;;;;;;;;17.25;16.00;;;;;26.35;42.16;100593.09;5023875;28;45600;-61
2022/08/25 02:07:08;;;;;;;;;16.75;15.50;;;;;26.33;42.04;100586.16;5007723;28;45594;-63
2022/08/25 02:09:40;;;;;;;;;15.50;15.50;;;;;26.29;42.07;100580.25;5058156;28;45557;-62
2022/08/25 02:12:09;;;;;;;;;13.75;13.00;;;;;26.29;42.07;100587.50;5040910;28;46421;-62
2022/08/25 02:14:39;;;;;;;;;14.50;14.50;;;;;26.27;42.26;100581.41;5041239;28;45486;-61
2022/08/25 02:17:09;;;;;;;;;16.75;13.50;;;;;26.26;42.12;100569.78;5042707;28;45531;-62
2022/08/25 02:20:08;;;;;;;;;15.00;14.00;;;;;26.23;42.12;100572.78;5056465;28;45728;-62
2022/08/25 02:22:42;;;;;;;;;16.75;14.50;;;;;26.22;42.31;100577.34;5057657;28;46254;-62
2022/08/25 02:25:11;;;;;;;;;16.25;13.75;;;;;26.24;42.44;100577.16;5056835;28;45474;-63
2022/08/25 02:27:42;;;;;;;;;13.25;13.25;;;;;26.25;42.31;100576.19;5056810;28;45586;-63
2022/08/25 02:30:20;;;;;;;;;12.50;12.50;;;;;26.20;42.49;100568.56;5056949;28;45566;-62
2022/08/25 02:33:09;;;;;;;;;11.75;10.50;;;;;26.22;42.58;100561.16;5040821;28;45581;-63
2022/08/25 02:35:39;;;;;;;;;15.25;15.25;;;;;26.18;42.89;100554.38;5052276;28;45526;-63
2022/08/25 02:38:09;;;;;;;;;10.00;10.00;;;;;26.17;42.52;100547.31;5057090;28;45620;-64
2022/08/25 02:40:50;;;;;;;;;15.25;14.00;;;;;26.18;42.63;100558.94;5056712;28;45455;-63
2022/08/25 02:43:28;;;;;;;;;15.00;14.75;;;;;26.17;42.58;100562.63;5024271;28;46364;-63
2022/08/25 02:45:58;;;;;;;;;12.25;12.25;;;;;26.13;42.62;100548.59;5039709;28;45552;-62
2022/08/25 02:48:24;;;;;;;;;16.00;15.00;;;;;26.12;42.59;100546.09;5040953;28;45479;-62
2022/08/25 02:51:08;;;;;;;;;15.00;15.00;;;;;26.11;42.63;100549.75;5058111;28;45498;-63
2022/08/25 02:53:56;;;;;;;;;13.00;13.00;;;;;26.10;42.73;100542.69;5023189;28;46287;-63
2022/08/25 02:56:34;;;;;;;;;13.75;12.25;;;;;26.09;43.03;100539.16;5057230;28;45518;-62
2022/08/25 02:59:01;;;;;;;;;16.25;13.25;;;;;26.06;42.80;100535.91;5057443;28;45469;-61
2022/08/25 03:01:43;;;;;;;;;15.00;14.50;;;;;26.04;41.99;100528.00;5058413;28;45425;-62
2022/08/25 03:04:15;;;;;;;;;14.50;14.50;;;;;26.04;42.03;100537.94;5023135;28;45554;-62
2022/08/25 03:06:47;;;;;;;;;15.50;13.50;;;;;26.01;42.22;100531.00;5039421;28;45538;-63
2022/08/25 03:09:43;;;;;;;;;12.25;12.25;;;;;26.01;42.04;100536.38;5057096;28;45420;-62
2022/08/25 03:12:24;;;;;;;;;13.25;12.75;;;;;25.98;42.00;100542.09;5056002;28;45375;-63
2022/08/25 03:14:59;;;;;;;;;14.75;13.75;;;;;25.93;41.98;100542.56;5008753;28;47948;-61
2022/08/25 03:17:41;;;;;;;;;13.50;13.50;;;;;25.92;42.21;100535.44;5057671;28;45612;-63
2022/08/25 03:20:24;;;;;;;;;11.50;11.00;;;;;25.89;42.04;100538.47;5023230;28;45521;-62
2022/08/25 03:23:04;;;;;;;;;0.00;0.00;;;;;25.90;42.17;100526.69;5055746;28;45554;-61
2022/08/25 03:28:32;;;;;;;;;14.00;12.75;;;;;25.91;41.75;100522.16;5057933;28;45523;-61
2022/08/25 03:31:07;;;;;;;;;14.25;13.75;;;;;25.89;41.59;100516.06;5023009;28;45467;-62
2022/08/25 03:33:50;;;;;;;;;12.25;12.25;;;;;25.87;41.82;100513.53;5056156;28;45489;-62
2022/08/25 03:36:20;;;;;;;;;14.00;14.00;;;;;25.86;41.72;100509.13;5044472;28;45495;-63
2022/08/25 03:38:59;;;;;;;;;12.50;12.00;;;;;25.83;41.60;100501.34;5040461;28;45406;-61
2022/08/25 03:41:48;;;;;;;;;12.00;12.00;;;;;25.80;41.99;100493.56;5009363;28;45555;-61
2022/08/25 03:44:22;;;;;;;;;13.25;12.50;;;;;25.77;41.95;100497.41;5029381;28;45558;-63
2022/08/25 03:46:53;;;;;;;;;13.25;12.00;;;;;25.76;41.94;100492.19;5079417;28;47009;-61
2022/08/25 03:49:30;;;;;;;;;12.50;12.25;;;;;25.76;42.08;100489.47;5045316;28;45609;-63
2022/08/25 03:52:04;;;;;;;;;12.00;11.25;;;;;25.76;42.05;100498.44;5062332;28;45650;-62
2022/08/25 03:54:37;;;;;;;;;13.00;12.50;;;;;25.77;41.71;100492.03;5044832;28;45599;-63
2022/08/25 03:57:31;;;;;;;;;11.75;10.50;;;;;25.77;41.46;100494.72;5061419;28;46272;-63
2022/08/25 04:00:06;;;;;;;;;13.50;13.50;;;;;25.70;42.07;100496.34;5044678;28;45489;-62
2022/08/25 04:02:39;;;;;;;;;12.00;12.00;;;;;25.75;42.05;100501.28;5063077;28;45403;-63
2022/08/25 04:05:09;;;;;;;;;14.25;14.25;;;;;25.71;42.33;100516.03;5029296;28;45469;-62
2022/08/25 04:07:43;;;;;;;;;14.25;14.25;;;;;25.68;42.56;100513.66;5079576;28;46273;-62
2022/08/25 04:10:14;;;;;;;;;11.50;11.50;;;;;25.65;42.60;100517.50;5029775;28;45531;-63
2022/08/25 04:13:00;;;;;;;;;12.50;12.25;;;;;25.64;42.52;100512.28;5044282;28;45529;-63
2022/08/25 04:15:30;;;;;;;;;13.50;13.50;;;;;25.60;42.50;100506.34;5079557;28;45457;-62
2022/08/25 04:40:06;;;;;;;;;12.75;11.75;;;;;25.53;41.67;100519.59;5003960;27;46385;-63
2022/08/25 04:42:36;;;;;;;;;13.00;12.25;;;;;25.50;41.63;100527.13;5082910;27;45595;-63
2022/08/25 04:45:06;;;;;;;;;15.00;12.00;;;;;25.52;41.83;100534.06;5065887;27;45444;-63
2022/08/25 04:47:59;;;;;;;;;12.50;12.50;;;;;25.54;42.06;100532.03;5082604;27;45343;-63
2022/08/25 04:50:33;;;;;;;;;14.00;12.50;;;;;25.53;42.03;100538.44;5081547;27;45434;-62
2022/08/25 04:53:12;;;;;;;;;13.50;13.00;;;;;25.45;42.32;100537.50;5082104;27;45415;-63
2022/08/25 04:55:46;;;;;;;;;11.25;11.25;;;;;25.47;42.49;100540.88;5030589;27;45499;-63
2022/08/25 04:58:21;;;;;;;;;13.75;13.00;;;;;25.47;42.86;100538.19;5100227;27;45523;-61
2022/08/25 05:04:10;;;;;;;;;14.33;14.33;;;;;25.42;42.29;100545.91;5100143;27;45323;-62
2022/08/25 05:23:29;;;;;;;;;16.75;16.75;;;;;25.38;42.27;100577.66;5101056;27;45409;-63
2022/08/25 05:26:10;;;;;;;;;17.00;17.00;;;;;25.33;42.99;100579.94;5099973;27;45502;-62
2022/08/25 05:28:50;;;;;;;;;17.25;17.25;;;;;25.27;43.12;100580.56;5047118;27;45652;-62
2022/08/25 05:31:29;;;;;;;;;16.50;15.50;;;;;25.30;43.05;100585.63;5033434;27;45425;-62
2022/08/25 05:34:17;;;;;;;;;20.75;18.00;;;;;25.33;43.51;100590.72;5047044;27;45520;-61
2022/08/25 05:37:05;;;;;;;;;16.50;15.50;;;;;25.30;43.67;100589.16;5081219;27;45430;-62
2022/08/25 05:39:40;;;;;;;;;18.50;17.00;;;;;25.30;43.45;100586.47;5069691;27;45555;-61
2022/08/25 05:42:29;;;;;;;;;17.50;16.25;;;;;25.26;43.73;100579.72;5091147;27;46735;-61
2022/08/25 05:44:59;;;;;;;;;15.25;14.25;;;;;25.27;42.95;100580.56;5081153;27;45458;-62
2022/08/25 05:47:33;;;;;;;;;13.00;13.00;;;;;25.29;42.40;100586.63;5081935;27;45505;-64
2022/08/25 05:50:08;;;;;;;;;14.25;13.25;;;;;25.32;41.67;100580.94;5046256;27;45611;-63
2022/08/25 05:52:41;;;;;;;;;12.50;12.50;;;;;25.34;41.59;100577.09;5067104;27;45483;-62
2022/08/25 05:55:10;;;;;;;;;16.25;15.25;;;;;25.37;41.47;100581.34;5046304;27;45447;-63
2022/08/25 05:57:59;;;;;;;;;13.25;12.25;;;;;25.38;42.06;100582.19;5063057;27;45538;-61
2022/08/25 06:00:29;;;;;;;;;15.50;14.25;;;;;25.37;41.74;100584.03;5080554;27;45476;-63
2022/08/25 06:03:21;;;;;;;;;13.25;13.25;;;;;25.36;41.38;100576.94;5045322;27;46423;-63
2022/08/25 06:05:51;;;;;;;;;13.50;12.00;;;;;25.38;41.14;100577.66;5079569;27;45489;-62
2022/08/25 06:08:18;;;;;;;;;15.50;15.50;;;;;25.35;40.95;100581.47;5045685;27;45535;-63
2022/08/25 06:11:09;;;;;;;;;14.00;13.75;;;;;25.35;41.05;100576.09;5099174;27;45439;-63
2022/08/25 06:13:47;;;;;;;;;15.25;14.25;;;;;25.37;41.71;100581.34;5066208;27;46141;-62
2022/08/25 06:16:17;;;;;;;;;13.25;13.00;;;;;25.38;41.45;100580.34;5029755;27;45616;-61
2022/08/25 06:18:46;;;;;;;;;13.75;13.75;;;;;25.36;41.22;100582.31;5064447;27;45478;-63
2022/08/25 06:21:20;;;;;;;;;16.50;15.50;;;;;25.33;40.88;100583.50;5081071;27;45589;-64
2022/08/25 06:23:54;;;;;;;;;13.25;12.00;;;;;25.31;40.95;100577.41;5064058;27;46400;-63
2022/08/25 06:26:33;;;;;;;;;13.50;13.50;;;;;25.33;41.12;100579.94;5080715;27;45514;-62
2022/08/25 06:29:07;;;;;;;;;12.00;12.00;;;;;25.32;41.37;100584.47;5047331;27;45602;-62
2022/08/25 06:31:45;;;;;;;;;13.50;12.50;;;;;25.34;41.30;100573.56;5045726;27;45613;-63
2022/08/25 06:34:22;;;;;;;;;15.25;15.25;;;;;25.33;41.43;100574.56;5080098;27;47156;-62
2022/08/25 06:37:00;;;;;;;;;12.25;12.25;;;;;25.34;41.18;100581.66;5079442;27;45436;-64
2022/08/25 06:39:47;;;;;;;;;38.67;33.67;;;;;25.34;41.72;100579.81;5079527;27;45572;-62
2022/08/25 06:42:20;;;;;;;;;14.00;14.00;;;;;25.37;41.02;100581.34;5097893;27;45441;-63
2022/08/25 06:45:00;;;;;;;;;14.25;12.25;;;;;25.33;40.52;100580.81;5044958;27;45432;-63
2022/08/25 06:47:34;;;;;;;;;12.00;11.00;;;;;25.33;40.27;100574.56;5096945;27;45497;-61
2022/08/25 06:50:05;;;;;;;;;15.00;13.50;;;;;25.34;40.33;100576.28;5045573;27;45524;-63
2022/08/25 06:52:34;;;;;;;;;12.00;11.00;;;;;25.35;40.28;100581.47;5061644;27;45588;-61
2022/08/25 06:55:00;;;;;;;;;10.75;10.75;;;;;25.37;40.59;100577.81;5097432;27;46006;-63
2022/08/25 06:57:34;;;;;;;;;13.00;12.50;;;;;25.38;40.08;100588.41;5097829;27;45470;-62
2022/08/25 07:00:11;;;;;;;;;13.75;13.50;;;;;25.39;39.83;100591.94;5045350;27;45479;-64
2022/08/25 07:03:00;;;;;;;;;17.00;15.50;;;;;25.41;39.99;100589.97;5068767;27;45779;-62
2022/08/25 07:05:36;;;;;;;;;18.25;17.50;;;;;25.45;39.92;100588.69;5063466;27;47350;-63
2022/08/25 07:08:12;;;;;;;;;14.00;13.00;;;;;25.47;39.13;100586.66;5076595;27;45532;-63
2022/08/25 07:10:53;;;;;;;;;14.50;12.75;;;;;25.47;39.25;100582.16;5062249;27;45471;-63
2022/08/25 07:14:04;;;;;;;;;11.50;11.50;;;;;25.49;39.13;100593.59;5097804;27;45621;-62
2022/08/25 07:16:47;;;;;;;;;12.00;12.00;;;;;25.51;39.14;100588.06;5095837;27;46982;-62
2022/08/25 07:19:25;;;;;;;;;12.00;11.50;;;;;25.55;39.22;100586.78;5079830;27;45489;-62
2022/08/25 07:25:53;;;;;;;;;19.50;19.50;;;;;25.56;38.63;100597.38;5097514;27;45478;-63
2022/08/25 07:28:40;;;;;;;;;14.75;14.00;;;;;25.60;38.54;100599.78;5097954;27;45503;-62
2022/08/25 07:31:17;;;;;;;;;10.75;10.75;;;;;25.63;38.49;100603.03;5079908;27;45974;-63
2022/08/25 08:01:25;;;;;;;;;12.75;12.75;;;;;25.93;38.61;100588.38;5083048;27;45477;-62
2022/08/25 08:06:45;;;;;;;;;12.00;12.00;;;;;26.06;38.41;100593.38;5097109;27;45702;-63
2022/08/25 08:09:15;;;;;;;;;13.75;13.00;;;;;26.13;38.29;100575.56;5079356;27;45502;-63
2022/08/25 08:11:45;;;;;;;;;10.75;10.50;;;;;26.19;38.17;100587.56;5061070;27;45552;-62
2022/08/25 08:14:29;;;;;;;;;12.25;12.25;;;;;26.22;37.65;100585.44;5078344;27;45505;-62
2022/08/25 08:17:07;;;;;;;;;14.75;12.50;;;;;26.23;37.66;100584.41;5060292;27;46468;-62
2022/08/25 08:19:37;;;;;;;;;13.50;13.50;;;;;26.28;37.79;100594.75;5078576;27;46136;-62
2022/08/25 08:22:15;;;;;;;;;18.25;17.00;;;;;26.33;37.74;100594.25;5078222;27;45549;-62
2022/08/25 08:25:04;;;;;;;;;28.00;26.33;;;;;26.36;37.41;100602.88;5096624;27;46095;-62
2022/08/25 08:27:40;;;;;;;;;18.50;18.25;;;;;26.39;36.98;100607.13;5061215;27;47938;-61
2022/08/25 08:30:11;;;;;;;;;13.00;11.25;;;;;26.44;37.02;100631.78;5081890;27;45487;-62
2022/08/25 08:35:43;;;;;;;;;15.00;15.00;;;;;26.52;37.61;100614.81;5057566;27;45615;-62
2022/08/25 08:38:17;;;;;;;;;13.75;13.75;;;;;26.57;37.52;100599.00;5064315;27;46245;-61
2022/08/25 08:45:06;;;;;;;;;13.50;13.50;;;;;26.70;37.15;100614.78;5100102;27;45445;-62
2022/08/25 08:48:11;;;;;;;;;12.00;12.00;;;;;26.73;37.07;100617.16;5082207;27;45784;-63
2022/08/25 08:54:40;;;;;;;;;11.50;10.50;;;;;26.76;37.12;100616.84;5099693;27;45461;-62
2022/08/25 08:57:28;;;;;;;;;10.00;10.00;;;;;26.81;37.14;100633.41;5067131;27;45521;-61
2022/08/25 08:59:58;;;;;;;;;10.75;10.00;;;;;26.82;36.98;100632.41;5081459;27;45631;-62
2022/08/25 09:05:58;;;;;;;;;11.00;11.00;;;;;26.93;36.82;100634.00;4997025;28;45488;-61
2022/08/25 09:08:28;;;;;;;;;10.25;10.00;;;;;26.95;37.14;100627.44;4996457;28;45514;-62
2022/08/25 09:11:33;;;;;;;;;13.50;13.50;;;;;26.97;37.13;100624.56;4933082;28;45497;-61
2022/08/25 09:14:37;;;;;;;;;11.25;11.25;;;;;26.99;37.09;100620.69;5044839;27;46968;-62
2022/08/25 09:17:46;;;;;;;;;12.25;11.25;;;;;26.99;37.22;100618.00;5081264;27;45472;-62
2022/08/25 09:20:50;;;;;;;;;13.75;13.50;;;;;27.02;37.62;100624.94;5098482;27;45469;-62
2022/08/25 09:23:54;;;;;;;;;14.50;13.00;;;;;27.06;38.26;100623.63;5063672;27;45617;-62
2022/08/25 09:27:16;;;;;;;;;16.00;16.00;;;;;27.08;39.04;100611.66;5062295;27;45559;-63
2022/08/25 09:30:13;;;;;;;;;16.25;15.00;;;;;27.10;39.26;100625.81;4980141;28;45488;-62
2022/08/25 09:33:06;;;;;;;;;14.75;14.75;;;;;27.10;39.56;100617.72;4980098;28;45623;-63
2022/08/25 09:35:45;;;;;;;;;15.25;15.00;;;;;27.16;39.21;100613.50;4961383;28;45675;-63
2022/08/25 09:38:19;;;;;;;;;12.00;12.00;;;;;27.16;40.33;100624.31;4996215;28;46178;-64
2022/08/25 09:41:06;;;;;;;;;12.75;12.75;;;;;27.16;40.20;100634.28;4995099;28;45552;-65
2022/08/25 09:43:52;;;;;;;;;14.25;13.50;;;;;27.19;39.82;100633.97;4979790;28;45626;-63
2022/08/25 09:46:30;;;;;;;;;15.00;14.00;;;;;27.19;39.61;100621.34;4949809;28;45691;-63
2022/08/25 09:49:17;;;;;;;;;14.75;13.25;;;;;27.19;39.48;100640.25;4980341;28;45492;-63
2022/08/25 09:55:27;;;;;;;;;14.50;14.50;;;;;27.22;39.05;100626.41;4996324;28;45570;-63
2022/08/25 09:58:13;;;;;;;;;15.75;15.00;;;;;27.21;38.96;100619.31;4971563;28;45504;-62
2022/08/25 10:01:07;;;;;;;;;15.75;15.75;;;;;27.25;38.47;100628.78;4934328;28;46361;-64
2022/08/25 10:04:00;;;;;;;;;18.00;16.50;;;;;27.23;38.30;100640.75;4959435;28;45449;-64
2022/08/25 10:06:53;;;;;;;;;17.25;17.25;;;;;27.26;38.38;100611.56;4991653;28;45477;-63
2022/08/25 10:09:44;;;;;;;;;12.75;12.75;;;;;27.28;38.04;100617.66;5039198;28;45703;-63
2022/08/25 10:12:49;;;;;;;;;12.75;12.00;;;;;27.29;37.26;100613.09;5028228;28;46432;-64
2022/08/25 10:15:32;;;;;;;;;15.00;14.00;;;;;27.37;38.02;100612.28;5078100;28;45420;-64
2022/08/25 10:18:42;;;;;;;;;14.25;13.25;;;;;27.37;37.78;100610.44;5058954;28;45511;-64
2022/08/25 10:21:19;;;;;;;;;16.50;16.50;;;;;27.42;38.20;100608.09;5009828;28;45527;-63
2022/08/25 10:24:01;;;;;;;;;16.00;16.00;;;;;27.48;37.80;100609.28;5059420;28;45600;-63
2022/08/25 10:27:17;;;;;;;;;15.50;14.25;;;;;27.54;37.81;100606.78;4995145;28;45606;-65
2022/08/25 10:30:39;;;;;;;;;7.50;5.00;;;;;27.60;37.78;100596.34;5050896;28;45471;-63
2022/08/25 10:33:40;;;;;;;;;15.00;15.00;;;;;27.65;37.85;100586.72;4959460;28;45745;-64
2022/08/25 10:36:40;;;;;;;;;15.50;15.00;;;;;27.68;37.66;100580.16;4958698;28;45552;-64
2022/08/25 10:39:52;;;;;;;;;16.00;15.25;;;;;27.75;37.78;100581.16;4974139;28;45391;-64
2022/08/25 10:42:32;;;;;;;;;15.00;15.00;;;;;27.77;37.71;100582.66;4959097;28;45629;-64
2022/08/25 10:48:42;;;;;;;;;12.75;12.75;;;;;27.88;38.07;100570.72;4975439;28;45590;-63
2022/08/25 10:51:46;;;;;;;;;16.25;15.75;;;;;27.92;37.49;100572.09;4957649;28;45543;-64
2022/08/25 10:54:50;;;;;;;;;12.50;11.75;;;;;27.98;37.53;100575.97;4942380;28;45477;-63
2022/08/25 10:58:12;;;;;;;;;13.00;13.00;;;;;28.03;37.08;100579.03;4963884;28;45506;-62
2022/08/25 11:04:25;;;;;;;;;11.25;11.25;;;;;28.11;36.15;100578.19;4941741;28;45598;-63
2022/08/25 11:10:36;;;;;;;;;14.00;12.00;;;;;28.21;35.95;100573.47;4974288;28;45442;-64
2022/08/25 11:13:09;;;;;;;;;13.75;13.75;;;;;28.25;36.08;100576.66;4974209;28;46445;-63
2022/08/25 11:16:27;;;;;;;;;13.00;13.00;;;;;28.28;36.01;100574.44;4974433;28;45531;-64
2022/08/25 11:19:35;;;;;;;;;12.25;11.75;;;;;28.27;35.45;100564.66;4919340;28;45618;-63
2022/08/25 11:22:36;;;;;;;;;12.75;12.75;;;;;28.37;35.54;100572.56;4929830;28;45570;-64
2022/08/25 11:25:42;;;;;;;;;10.00;10.00;;;;;28.41;35.11;100571.22;4962661;28;45483;-63
2022/08/25 11:29:06;;;;;;;;;10.40;10.40;;;;;28.47;35.48;100575.16;4980604;28;45467;-63
2022/08/25 11:31:47;;;;;;;;;13.00;12.00;;;;;28.51;35.32;100573.81;4977507;28;45532;-64
2022/08/25 11:34:14;;;;;;;;;13.00;13.00;;;;;28.51;35.02;100571.09;4978208;28;45498;-64
2022/08/25 11:37:02;;;;;;;;;13.00;13.00;;;;;28.56;34.85;100574.97;4977857;28;45471;-62
2022/08/25 11:40:08;;;;;;;;;11.00;11.00;;;;;28.59;35.32;100584.59;4977600;28;44856;-63
2022/08/25 11:43:12;;;;;;;;;12.75;12.75;;;;;28.65;34.90;100583.06;4977234;28;45537;-64
2022/08/25 11:46:19;;;;;;;;;15.00;15.00;;;;;28.73;35.27;100583.06;4986368;27;45481;-64
2022/08/25 11:49:24;;;;;;;;;16.50;16.50;;;;;28.80;34.71;100584.03;5077998;27;45402;-62
2022/08/25 11:51:58;;;;;;;;;13.60;13.60;;;;;28.85;33.91;100585.22;5078566;27;45517;-64
2022/08/25 11:55:06;;;;;;;;;15.50;13.50;;;;;28.91;34.26;100583.69;5060864;27;45629;-63
2022/08/25 11:57:40;;;;;;;;;15.50;14.50;;;;;29.01;34.12;100575.34;5096248;27;45534;-63
2022/08/25 12:00:16;;;;;;;;;15.00;15.00;;;;;29.09;33.72;100578.03;5077567;27;46208;-62
2022/08/25 12:03:22;;;;;;;;;15.00;14.25;;;;;29.18;33.89;100577.00;5079017;27;45554;-62
2022/08/25 12:06:18;;;;;;;;;14.00;13.00;;;;;29.29;33.79;100567.66;5063544;27;45494;-64
2022/08/25 12:09:21;;;;;;;;;14.25;13.00;;;;;29.44;32.97;100571.25;5068611;27;45769;-63
2022/08/25 12:12:40;;;;;;;;;12.25;12.25;;;;;29.64;32.71;100573.56;5064714;27;46276;-64
2022/08/25 12:15:57;;;;;;;;;12.00;12.00;;;;;29.87;32.24;100574.41;4981905;28;45586;-63
2022/08/25 12:18:45;;;;;;;;;12.00;12.00;;;;;30.03;32.04;100576.16;4960568;28;45733;-63
2022/08/25 12:21:37;;;;;;;;;10.50;10.50;;;;;30.18;31.80;100581.63;4997855;28;45624;-63
2022/08/25 12:24:57;;;;;;;;;13.25;13.25;;;;;30.36;31.69;100575.94;4983653;28;45604;-64
2022/08/25 12:27:55;;;;;;;;;14.40;14.40;;;;;30.36;31.21;100570.50;4980210;28;45463;-64
2022/08/25 12:30:57;;;;;;;;;14.50;13.75;;;;;30.26;31.72;100578.06;4964668;28;45529;-64
2022/08/25 12:34:08;;;;;;;;;11.25;11.25;;;;;30.24;32.34;100580.94;4980999;28;45481;-64
2022/08/25 12:36:42;;;;;;;;;12.25;12.25;;;;;30.30;32.31;100579.34;4997048;28;46439;-64
2022/08/25 12:39:43;;;;;;;;;16.00;12.00;;;;;30.46;32.47;100576.47;4933862;28;45514;-64
2022/08/25 12:42:44;;;;;;;;;13.00;13.00;;;;;30.62;32.26;100583.63;4952019;28;45576;-63
2022/08/25 12:48:54;;;;;;;;;13.75;13.75;;;;;30.79;32.29;100578.88;4997506;28;45814;-63
2022/08/25 12:51:21;;;;;;;;;13.00;13.00;;;;;30.87;32.50;100567.94;5011205;27;45483;-63
2022/08/25 12:54:37;;;;;;;;;14.00;13.60;;;;;31.01;32.78;100567.09;5099704;27;45527;-64
2022/08/25 12:57:41;;;;;;;;;12.00;12.00;;;;;30.97;32.93;100576.63;5082072;27;45546;-63
2022/08/25 13:00:35;;;;;;;;;11.20;11.20;;;;;30.89;33.01;100565.03;5099834;27;46245;-63
2022/08/25 13:03:43;;;;;;;;;12.40;11.60;;;;;30.95;33.25;100572.41;5063954;27;45426;-63
2022/08/25 13:07:14;;;;;;;;;11.60;10.00;;;;;30.90;34.38;100562.13;5036514;28;45537;-63
2022/08/25 13:10:20;;;;;;;;;10.00;10.00;;;;;30.88;33.86;100566.06;5016193;28;45638;-64
2022/08/25 13:19:21;;;;;;;;;8.80;8.80;;;;;30.81;33.99;100563.25;5002533;28;44777;-65
2022/08/25 13:21:56;;;;;;;;;11.00;10.00;;;;;30.98;34.11;100561.19;5000313;28;45615;-62
2022/08/25 13:27:36;;;;;;;;;12.80;11.40;;;;;31.03;34.30;100548.75;5015809;28;45465;-64
2022/08/25 13:30:04;;;;;;;;;10.00;10.00;;;;;30.94;34.29;100554.44;4999543;28;45427;-64
2022/08/25 13:32:38;;;;;;;;;12.25;10.00;;;;;30.81;34.50;100550.50;5032303;28;45589;-63
2022/08/25 13:35:29;;;;;;;;;8.00;8.00;;;;;30.78;34.81;100547.31;4998942;28;46421;-64
2022/08/25 13:41:10;;;;;;;;;11.00;11.00;;;;;30.88;34.45;100545.19;5015988;28;45505;-63
2022/08/25 13:46:27;;;;;;;;;9.80;9.80;;;;;31.13;34.43;100550.31;5083474;27;45794;-63
2022/08/25 13:49:08;;;;;;;;;11.80;11.80;;;;;31.11;34.29;100544.22;5080988;27;45411;-63
2022/08/25 13:51:56;;;;;;;;;8.40;8.40;;;;;31.14;34.63;100543.81;5096495;27;45554;-63
2022/08/25 13:54:44;;;;;;;;;8.50;8.50;;;;;31.12;34.70;100540.47;5030342;27;45574;-64
2022/08/25 13:57:36;;;;;;;;;11.60;11.60;;;;;31.16;34.66;100544.47;5060863;28;45543;-63
2022/08/25 14:03:00;;;;;;;;;9.80;8.80;;;;;31.17;34.14;100543.47;5078317;28;45392;-62
2022/08/25 14:05:46;;;;;;;;;10.60;10.60;;;;;31.09;34.61;100541.69;5044263;28;45492;-64
2022/08/25 14:08:40;;;;;;;;;11.20;10.80;;;;;31.09;34.91;100538.97;5060121;28;47430;-63
2022/08/25 14:11:33;;;;;;;;;10.60;10.60;;;;;31.03;34.79;100545.16;5059358;28;45535;-64
2022/08/25 14:14:32;;;;;;;;;9.40;9.40;;;;;30.94;35.03;100536.28;5061508;28;45564;-64
2022/08/25 14:17:11;;;;;;;;;10.00;10.00;;;;;30.89;35.20;100537.88;5059421;28;45551;-64
2022/08/25 14:19:47;;;;;;;;;11.80;10.60;;;;;30.81;35.17;100547.78;5059575;28;47813;-62
2022/08/25 14:22:45;;;;;;;;;8.60;8.60;;;;;30.79;35.09;100546.28;5025660;28;45530;-63
2022/08/25 14:25:24;;;;;;;;;10.80;10.80;;;;;30.86;34.82;100546.41;5042074;28;45544;-64
2022/08/25 14:28:05;;;;;;;;;11.00;10.75;;;;;30.86;35.12;100551.81;5059450;28;45581;-64
2022/08/25 14:30:52;;;;;;;;;13.00;13.00;;;;;30.84;34.98;100541.13;5025417;28;46255;-63
2022/08/25 14:33:32;;;;;;;;;11.80;11.80;;;;;30.80;35.31;100537.97;5060105;28;45425;-64
2022/08/25 14:36:06;;;;;;;;;11.00;10.80;;;;;30.76;34.97;100543.91;4977606;27;45540;-64
2022/08/25 14:38:39;;;;;;;;;10.20;10.20;;;;;30.70;35.26;100533.81;5042000;28;45445;-63
2022/08/25 14:41:10;;;;;;;;;10.20;10.20;;;;;30.69;35.23;100532.16;5058998;28;45540;-64